createdAt,value
2023-05-04T00:00:10.427Z,101102.41
2023-05-04T00:05:33.013Z,101093.55
2023-05-04T00:10:35.643Z,101094.73
2023-05-04T00:15:38.182Z,101093.98
2023-05-04T00:20:41.013Z,101095.98
2023-05-04T00:25:43.575Z,101099.38
2023-05-04T00:30:46.500Z,101102.11
2023-05-04T00:35:49.079Z,101100.05
2023-05-04T00:40:51.790Z,101101.62
2023-05-04T00:45:54.393Z,101102.33
2023-05-04T00:50:57.138Z,101093.39
2023-05-04T00:55:59.733Z,101085.34
2023-05-04T01:01:03.912Z,101080.20
2023-05-04T01:06:30.346Z,101078.69
2023-05-04T01:12:01.481Z,101080.77
2023-05-04T01:17:06.007Z,101077.42
2023-05-04T01:22:08.726Z,101072.88
2023-05-04T01:27:19.287Z,101069.25
2023-05-04T01:32:22.933Z,101073.23
2023-05-04T01:37:26.014Z,101064.27
2023-05-04T01:42:28.527Z,101067.92
2023-05-04T01:47:31.678Z,101063.62
2023-05-04T01:52:34.215Z,101068.63
2023-05-04T01:57:36.775Z,101067.60
2023-05-04T02:02:39.384Z,101070.58
2023-05-04T02:07:41.978Z,101074.06
2023-05-04T02:12:44.584Z,101071.15
2023-05-04T02:17:47.113Z,101073.94
2023-05-04T02:22:49.595Z,101070.52
2023-05-04T02:27:52.105Z,101073.31
2023-05-04T02:32:54.665Z,101079.20
2023-05-04T02:37:57.197Z,101081.45
2023-05-04T02:42:59.765Z,101080.73
2023-05-04T02:48:02.385Z,101078.33
2023-05-04T02:53:04.986Z,101072.96
2023-05-04T02:58:07.583Z,101072.60
2023-05-04T03:03:10.283Z,101076.02
2023-05-04T03:08:13.043Z,101071.52
2023-05-04T03:13:16.620Z,101067.55
2023-05-04T03:18:19.232Z,101067.71
2023-05-04T03:23:21.730Z,101073.10
2023-05-04T03:28:24.304Z,101075.36
2023-05-04T03:33:26.796Z,101072.27
2023-05-04T03:38:29.328Z,101074.86
2023-05-04T03:43:31.871Z,101071.61
2023-05-04T03:48:34.464Z,101072.65
2023-05-04T03:53:37.081Z,101072.31
2023-05-04T03:58:39.637Z,101069.39
2023-05-04T04:03:42.263Z,101068.02
2023-05-04T04:08:44.877Z,101071.81
2023-05-04T04:13:47.402Z,101078.55
2023-05-04T04:18:49.981Z,101084.61
2023-05-04T04:23:52.593Z,101079.59
2023-05-04T04:28:55.215Z,101079.35
2023-05-04T04:33:57.818Z,101075.38
2023-05-04T04:39:00.843Z,101076.04
2023-05-04T04:44:04.051Z,101077.62
2023-05-04T04:49:07.263Z,101078.23
2023-05-04T04:54:09.954Z,101074.31
2023-05-04T04:59:13.947Z,101072.42
2023-05-04T05:04:18.957Z,101073.91
2023-05-04T05:09:21.469Z,101071.27
2023-05-04T05:14:24.044Z,101070.42
2023-05-04T05:19:26.611Z,101072.39
2023-05-04T05:24:29.149Z,101073.87
2023-05-04T05:29:32.156Z,101073.23
2023-05-04T05:34:34.963Z,101073.98
2023-05-04T05:39:37.478Z,101072.69
2023-05-04T05:44:40.134Z,101074.91
2023-05-04T05:49:44.764Z,101069.02
2023-05-04T05:54:48.789Z,101071.94
2023-05-04T05:59:51.395Z,101073.86
2023-05-04T06:04:54.384Z,101074.27
2023-05-04T06:09:57.224Z,101070.30
2023-05-04T06:15:00.041Z,101075.02
2023-05-04T06:20:02.732Z,101077.89
2023-05-04T06:25:08.105Z,101070.32
2023-05-04T06:30:11.888Z,101071.09
2023-05-04T06:35:14.943Z,101067.44
2023-05-04T06:40:20.529Z,101068.32
2023-05-04T06:45:23.133Z,101066.60
2023-05-04T06:50:25.665Z,101062.23
2023-05-04T06:55:28.223Z,101062.41
2023-05-04T07:00:32.129Z,101060.02
2023-05-04T07:05:37.233Z,101060.06
2023-05-04T07:10:40.122Z,101062.98
2023-05-04T07:15:42.699Z,101061.44
2023-05-04T07:20:45.374Z,101054.89
2023-05-04T07:25:47.993Z,101053.98
2023-05-04T07:30:51.207Z,101048.86
2023-05-04T07:35:58.720Z,101050.94
2023-05-04T07:41:01.387Z,101045.90
2023-05-04T07:46:04.014Z,101045.40
2023-05-04T07:51:11.698Z,101039.25
2023-05-04T07:56:14.338Z,101044.36
2023-05-04T08:01:17.103Z,101046.01
2023-05-04T08:06:19.689Z,101047.60
2023-05-04T08:11:22.197Z,101041.36
2023-05-04T08:16:24.756Z,101038.09
2023-05-04T08:21:27.948Z,101036.42
2023-05-04T08:26:31.084Z,101031.66
2023-05-04T08:31:36.753Z,101035.36
2023-05-04T08:36:40.579Z,101037.11
2023-05-04T08:41:43.605Z,101032.65
2023-05-04T08:46:53.638Z,101033.55
2023-05-04T08:52:00.691Z,101026.55
2023-05-04T08:57:05.070Z,101034.80
2023-05-04T09:02:12.011Z,101035.35
2023-05-04T09:07:16.440Z,101034.46
2023-05-04T09:12:19.287Z,101035.34
2023-05-04T09:17:29.395Z,101032.67
2023-05-04T09:22:32.008Z,101034.45
2023-05-04T09:27:34.578Z,101035.30
2023-05-04T09:32:46.467Z,101035.23
2023-05-04T09:38:26.793Z,101038.58
2023-05-04T09:43:38.713Z,101034.59
2023-05-04T09:48:53.846Z,101039.70
2023-05-04T09:54:00.780Z,101036.11
2023-05-04T09:59:05.443Z,101029.99
2023-05-04T10:04:08.170Z,101019.25
2023-05-04T10:09:11.654Z,101016.74
2023-05-04T10:14:14.569Z,101016.59
2023-05-04T10:19:49.036Z,101015.40
2023-05-04T10:25:19.215Z,101004.10
2023-05-04T10:30:22.962Z,101002.99
2023-05-04T10:35:27.615Z,101003.36
2023-05-04T10:40:38.190Z,100996.77
2023-05-04T10:45:41.784Z,100985.79
2023-05-04T10:50:46.657Z,100984.40
2023-05-04T10:55:51.573Z,100979.23
2023-05-04T11:00:54.162Z,100970.73
2023-05-04T11:05:56.805Z,100965.41
2023-05-04T11:11:06.782Z,100962.67
2023-05-04T11:16:12.446Z,100959.52
2023-05-04T11:21:25.767Z,100953.20
2023-05-04T11:26:28.836Z,100951.43
2023-05-04T11:31:31.554Z,100951.33
2023-05-04T11:36:38.551Z,100946.85
2023-05-04T11:41:42.941Z,100953.23
2023-05-04T11:46:45.831Z,100952.66
2023-05-04T11:51:48.578Z,100946.29
2023-05-04T11:56:51.208Z,100940.48
2023-05-04T12:01:53.990Z,100933.86
2023-05-04T12:06:56.637Z,100934.20
2023-05-04T12:11:59.316Z,100931.56
2023-05-04T12:17:03.532Z,100929.33
2023-05-04T12:22:06.086Z,100925.84
2023-05-04T12:27:15.030Z,100926.19
2023-05-04T12:32:18.337Z,100922.44
2023-05-04T12:37:22.158Z,100916.02
2023-05-04T12:42:26.486Z,100911.23
2023-05-04T12:47:29.145Z,100913.32
2023-05-04T12:52:31.687Z,100913.89
2023-05-04T12:57:34.205Z,100911.45
2023-05-04T13:02:37.780Z,100899.52
2023-05-04T13:07:40.467Z,100899.17
2023-05-04T13:12:45.443Z,100894.41
2023-05-04T13:17:48.946Z,100883.33
2023-05-04T13:22:52.247Z,100877.41
2023-05-04T13:27:55.199Z,100870.41
2023-05-04T13:32:57.818Z,100867.56
2023-05-04T13:38:00.620Z,100864.61
2023-05-04T13:43:04.464Z,100859.98
2023-05-04T13:48:07.347Z,100860.40
2023-05-04T13:53:12.923Z,100858.80
2023-05-04T13:58:15.505Z,100852.77
2023-05-04T14:03:20.498Z,100844.73
2023-05-04T14:08:23.230Z,100841.11
2023-05-04T14:13:25.868Z,100841.23
2023-05-04T14:18:28.762Z,100840.52
2023-05-04T14:23:31.414Z,100833.48
2023-05-04T14:28:33.971Z,100831.61
2023-05-04T14:33:37.233Z,100831.05
2023-05-04T14:38:42.825Z,100826.48
2023-05-04T14:43:45.729Z,100820.92
2023-05-04T14:48:48.469Z,100814.05
2023-05-04T14:53:51.404Z,100809.36
2023-05-04T14:58:53.935Z,100806.46
2023-05-04T15:03:56.767Z,100799.83
2023-05-04T15:08:59.527Z,100797.61
2023-05-04T15:14:02.235Z,100792.83
2023-05-04T15:19:05.190Z,100791.47
2023-05-04T15:24:09.257Z,100788.02
2023-05-04T15:29:11.790Z,100785.20
2023-05-04T15:34:16.825Z,100779.04
2023-05-04T15:39:20.858Z,100774.48
2023-05-04T15:44:24.209Z,100771.17
2023-05-04T15:49:26.846Z,100759.93
2023-05-04T15:54:30.085Z,100755.14
2023-05-04T15:59:32.757Z,100749.79
2023-05-04T16:04:35.887Z,100748.07
2023-05-04T16:09:38.535Z,100750.15
2023-05-04T16:14:41.492Z,100745.00
2023-05-04T16:19:44.189Z,100747.38
2023-05-04T16:24:46.766Z,100747.77
2023-05-04T16:29:51.054Z,100746.98
2023-05-04T16:34:53.564Z,100741.61
2023-05-04T16:39:57.307Z,100741.37
2023-05-04T16:45:02.096Z,100737.73
2023-05-04T16:50:05.808Z,100737.45
2023-05-04T16:55:11.815Z,100733.80
2023-05-04T17:00:15.674Z,100732.34
2023-05-04T17:05:19.459Z,100731.48
2023-05-04T17:10:22.101Z,100731.02
2023-05-04T17:15:24.675Z,100731.76
2023-05-04T17:20:32.817Z,100732.38
2023-05-04T17:25:35.629Z,100737.15
2023-05-04T17:30:40.276Z,100740.96
2023-05-04T17:35:42.820Z,100735.42
2023-05-04T17:40:45.417Z,100735.48
2023-05-04T17:45:48.012Z,100739.75
2023-05-04T17:50:51.069Z,100737.35
2023-05-04T17:55:53.617Z,100743.28
2023-05-04T18:00:56.529Z,100751.73
2023-05-04T18:05:59.050Z,100761.17
2023-05-04T18:11:03.449Z,100771.81
2023-05-04T18:16:06.362Z,100772.98
2023-05-04T18:21:08.953Z,100777.79
2023-05-04T18:26:18.200Z,100778.36
2023-05-04T18:31:20.788Z,100783.04
2023-05-04T18:36:24.422Z,100785.58
2023-05-04T18:41:28.259Z,100792.51
2023-05-04T18:46:30.816Z,100801.34
2023-05-04T18:51:33.585Z,100807.71
2023-05-04T18:56:36.518Z,100809.58
2023-05-04T19:01:39.232Z,100811.96
2023-05-04T19:06:42.104Z,100813.13
2023-05-04T19:11:46.700Z,100820.70
2023-05-04T19:16:49.219Z,100820.85
2023-05-04T19:21:52.366Z,100824.66
2023-05-04T19:26:55.882Z,100816.89
2023-05-04T19:32:01.284Z,100821.90
2023-05-04T19:37:08.585Z,100820.28
2023-05-04T19:42:11.560Z,100825.67
2023-05-04T19:47:14.061Z,100831.77
2023-05-04T19:52:16.936Z,100831.40
2023-05-04T19:57:20.974Z,100824.59
2023-05-04T20:02:23.777Z,100821.30
2023-05-04T20:07:26.474Z,100817.52
2023-05-04T20:12:29.341Z,100822.52
2023-05-04T20:17:33.392Z,100830.11
2023-05-04T20:22:36.067Z,100828.48
2023-05-04T20:27:39.459Z,100827.52
2023-05-04T20:32:42.734Z,100830.02
2023-05-04T20:37:45.463Z,100833.88
2023-05-04T20:42:48.021Z,100841.76
2023-05-04T20:47:50.695Z,100838.27
2023-05-04T20:52:53.339Z,100825.92
2023-05-04T20:57:56.332Z,100830.45
2023-05-04T21:02:59.149Z,100838.46
2023-05-04T21:08:01.756Z,100847.48
2023-05-04T21:13:04.992Z,100843.76
2023-05-04T21:18:07.637Z,100838.64
2023-05-04T21:23:10.249Z,100839.47
2023-05-04T21:28:12.786Z,100840.98
2023-05-04T21:33:15.321Z,100836.23
2023-05-04T21:38:19.563Z,100841.23
2023-05-04T21:43:24.365Z,100837.50
2023-05-04T21:48:26.970Z,100840.40
2023-05-04T21:53:35.506Z,100845.73
2023-05-04T21:58:40.699Z,100845.85
2023-05-04T22:03:44.203Z,100848.92
2023-05-04T22:08:46.757Z,100843.27
2023-05-04T22:13:49.468Z,100839.94
2023-05-04T22:18:52.160Z,100837.30
2023-05-04T22:23:54.841Z,100840.40
2023-05-04T22:28:57.397Z,100839.85
2023-05-04T22:33:59.939Z,100846.95
2023-05-04T22:39:02.621Z,100852.45
2023-05-04T22:44:05.151Z,100846.83
2023-05-04T22:49:07.770Z,100842.91
2023-05-04T22:54:10.314Z,100841.24
2023-05-04T22:59:13.002Z,100829.67
2023-05-04T23:04:15.525Z,100826.45
2023-05-04T23:09:18.320Z,100830.70
2023-05-04T23:14:20.877Z,100826.94
2023-05-04T23:19:23.409Z,100822.10
2023-05-04T23:24:26.002Z,100814.22
2023-05-04T23:29:28.523Z,100821.80
2023-05-04T23:34:31.047Z,100820.85
2023-05-04T23:39:33.553Z,100823.71
2023-05-04T23:44:36.143Z,100831.06
2023-05-04T23:49:38.616Z,100832.34
2023-05-04T23:54:41.143Z,100831.52
2023-05-04T23:59:43.644Z,100833.28
